Terminal Aerodrome Forecast
Issued by NWS

Home | Current Version | Previous Version | Text Only | Print | Product List | Glossary On
Versions: 1 2 3 4 5 6 7 8 9 10 11 12 13 14 15 16 17
000
FTUS46 KMFR 201731
TAFOTH
TAF
KOTH 201731Z 2018/2118 19016G25KT 6SM RA BR SCT010 OVC020
     FM202000 20016G25KT 5SM RA BR OVC015
     FM210200 22020G29KT 2SM RA BR OVC012
     FM211100 23015G24KT P6SM -RA OVC015=

USA.gov is the U.S. government's official web portal to all federal, state and local government web resources and services.